createdAt,value
2023-02-20T00:01:55.286Z,99860.94
2023-02-20T00:04:22.259Z,99876.41
2023-02-20T00:06:49.246Z,99868.63
2023-02-20T00:09:16.137Z,99875.44
2023-02-20T00:11:43.097Z,99864.19
2023-02-20T00:14:09.941Z,99865.03
2023-02-20T00:16:36.759Z,99869.34
2023-02-20T00:19:03.792Z,99851.28
2023-02-20T00:21:30.706Z,99842.75
2023-02-20T00:23:57.561Z,99839.31
2023-02-20T00:26:24.409Z,99823.81
2023-02-20T00:28:51.225Z,99838.41
2023-02-20T00:31:21.257Z,99835.81
2023-02-20T00:33:48.139Z,99822.94
2023-02-20T00:36:20.523Z,99841.00
2023-02-20T00:38:47.570Z,99832.41
2023-02-20T00:41:15.845Z,99846.94
2023-02-20T00:43:42.921Z,99840.19
2023-02-20T00:46:15.159Z,99855.66
2023-02-20T00:48:42.500Z,99844.50
2023-02-20T00:51:29.642Z,99840.19
2023-02-20T00:53:56.606Z,99827.31
2023-02-20T00:56:26.084Z,99834.25
2023-02-20T00:58:52.983Z,99838.47
2023-02-20T01:01:19.984Z,99834.25
2023-02-20T01:03:47.082Z,99837.63
2023-02-20T01:06:15.223Z,99847.06
2023-02-20T01:08:42.205Z,99853.09
2023-02-20T01:11:09.162Z,99850.50
2023-02-20T01:13:35.940Z,99853.09
2023-02-20T01:16:02.938Z,99833.34
2023-02-20T01:18:29.848Z,99841.09
2023-02-20T01:20:56.700Z,99831.63
2023-02-20T01:23:23.687Z,99817.00
2023-02-20T01:25:50.565Z,99817.00
2023-02-20T01:28:17.725Z,99815.25
2023-02-20T01:30:44.622Z,99822.13
2023-02-20T01:33:11.490Z,99810.06
2023-02-20T01:35:38.279Z,99829.88
2023-02-20T01:38:06.695Z,99823.00
2023-02-20T01:40:34.941Z,99817.00
2023-02-20T01:43:03.001Z,99798.03
2023-02-20T01:45:34.408Z,99787.66
2023-02-20T01:48:01.409Z,99800.59
2023-02-20T01:50:37.039Z,99802.31
2023-02-20T01:53:15.442Z,99791.09
2023-02-20T01:55:56.227Z,99789.41
2023-02-20T01:58:34.152Z,99782.47
2023-02-20T02:01:01.521Z,99770.41
2023-02-20T02:03:31.527Z,99774.75
2023-02-20T02:06:00.909Z,99764.44
2023-02-20T02:08:28.974Z,99768.69
2023-02-20T02:11:04.854Z,99761.81
2023-02-20T02:13:35.524Z,99748.97
2023-02-20T02:16:32.048Z,99757.50
2023-02-20T02:19:31.768Z,99757.47
2023-02-20T02:22:25.484Z,99757.44
2023-02-20T02:25:33.480Z,99766.03
2023-02-20T02:28:32.384Z,99755.66
2023-02-20T02:31:27.998Z,99751.38
2023-02-20T02:34:29.319Z,99753.06
2023-02-20T02:37:26.507Z,99756.44
2023-02-20T02:40:14.976Z,99749.56
2023-02-20T02:43:01.378Z,99743.50
2023-02-20T02:45:35.585Z,99740.06
2023-02-20T02:48:14.237Z,99746.91
2023-02-20T02:50:44.038Z,99742.59
2023-02-20T02:53:11.759Z,99735.72
2023-02-20T02:55:38.679Z,99728.00
2023-02-20T02:58:06.001Z,99716.00
2023-02-20T03:00:38.087Z,99722.84
2023-02-20T03:03:25.298Z,99717.69
2023-02-20T03:06:03.876Z,99715.94
2023-02-20T03:08:57.853Z,99724.56
2023-02-20T03:11:28.204Z,99724.53
2023-02-20T03:14:36.065Z,99705.69
2023-02-20T03:17:13.884Z,99697.88
2023-02-20T03:19:47.236Z,99696.13
2023-02-20T03:22:26.108Z,99687.47
2023-02-20T03:24:58.100Z,99688.34
2023-02-20T03:27:52.712Z,99690.84
2023-02-20T03:30:24.316Z,99681.38
2023-02-20T03:33:15.034Z,99677.91
2023-02-20T03:36:03.856Z,99674.38
2023-02-20T03:38:52.309Z,99675.13
2023-02-20T03:41:40.330Z,99687.13
2023-02-20T03:44:08.312Z,99689.63
2023-02-20T03:46:37.839Z,99685.22
2023-02-20T03:49:10.248Z,99695.44
2023-02-20T03:52:01.176Z,99689.38
2023-02-20T03:54:38.197Z,99691.94
2023-02-20T03:57:19.710Z,99693.56
2023-02-20T04:00:12.571Z,99689.19
2023-02-20T04:02:45.032Z,99671.91
2023-02-20T04:05:20.435Z,99664.19
2023-02-20T04:07:52.079Z,99664.09
2023-02-20T04:10:25.099Z,99657.16
2023-02-20T04:12:53.459Z,99648.50
2023-02-20T04:15:21.217Z,99650.09
2023-02-20T04:17:55.784Z,99646.53
2023-02-20T04:20:23.006Z,99643.03
2023-02-20T04:23:07.526Z,99627.56
2023-02-20T04:25:41.613Z,99624.06
2023-02-20T04:28:08.962Z,99604.28
2023-02-20T04:30:46.917Z,99610.28
2023-02-20T04:33:14.843Z,99611.91
2023-02-20T04:35:43.403Z,99611.03
2023-02-20T04:38:10.414Z,99594.75
2023-02-20T04:40:38.155Z,99598.97
2023-02-20T04:43:05.536Z,99587.81
2023-02-20T04:45:32.888Z,99586.03
2023-02-20T04:47:59.720Z,99591.16
2023-02-20T04:50:30.568Z,99586.00
2023-02-20T04:52:58.178Z,99577.50
2023-02-20T04:55:26.453Z,99567.25
2023-02-20T04:57:57.966Z,99564.72
2023-02-20T05:00:28.456Z,99561.34
2023-02-20T05:02:55.462Z,99540.78
2023-02-20T05:05:27.768Z,99558.78
2023-02-20T05:07:56.959Z,99545.97
2023-02-20T05:10:25.254Z,99545.16
2023-02-20T05:12:52.541Z,99525.47
2023-02-20T05:15:20.197Z,99519.47
2023-02-20T05:17:47.212Z,99516.09
2023-02-20T05:20:15.402Z,99511.84
2023-02-20T05:22:42.284Z,99500.72
2023-02-20T05:25:09.236Z,99514.47
2023-02-20T05:27:36.179Z,99499.06
2023-02-20T05:30:03.490Z,99485.38
2023-02-20T05:32:31.214Z,99488.84
2023-02-20T05:34:58.025Z,99482.00
2023-02-20T05:37:26.624Z,99486.28
2023-02-20T05:39:53.907Z,99488.00
2023-02-20T05:42:22.931Z,99480.22
2023-02-20T05:44:50.129Z,99481.06
2023-02-20T05:47:17.861Z,99463.06
2023-02-20T05:49:44.790Z,99460.50
2023-02-20T05:52:13.134Z,99460.47
2023-02-20T05:54:41.016Z,99454.44
2023-02-20T05:57:08.642Z,99455.22
2023-02-20T05:59:35.548Z,99440.66
2023-02-20T06:02:02.513Z,99414.88
2023-02-20T06:04:30.006Z,99403.69
2023-02-20T06:06:56.870Z,99408.81
2023-02-20T06:09:23.806Z,99395.09
2023-02-20T06:11:53.738Z,99390.75
2023-02-20T06:14:21.946Z,99379.63
2023-02-20T06:16:48.879Z,99385.63
2023-02-20T06:19:24.561Z,99382.16
2023-02-20T06:21:53.734Z,99383.03
2023-02-20T06:24:21.548Z,99379.63
2023-02-20T06:26:48.462Z,99367.63
2023-02-20T06:29:16.656Z,99351.34
2023-02-20T06:31:44.208Z,99352.22
2023-02-20T06:34:11.568Z,99347.94
2023-02-20T06:36:40.006Z,99336.81
2023-02-20T06:39:08.958Z,99317.09
2023-02-20T06:41:35.856Z,99314.53
2023-02-20T06:44:02.893Z,99322.22
2023-02-20T06:46:29.919Z,99325.59
2023-02-20T06:48:58.324Z,99312.75
2023-02-20T06:51:28.278Z,99294.75
2023-02-20T06:53:55.129Z,99299.84
2023-02-20T06:56:24.732Z,99299.91
2023-02-20T06:58:53.313Z,99289.69
2023-02-20T07:01:22.401Z,99293.97
2023-02-20T07:03:49.614Z,99278.50
2023-02-20T07:06:17.548Z,99276.78
2023-02-20T07:08:44.549Z,99271.63
2023-02-20T07:11:12.421Z,99257.00
2023-02-20T07:13:39.351Z,99252.69
2023-02-20T07:16:06.772Z,99238.97
2023-02-20T07:18:33.826Z,99226.06
2023-02-20T07:21:00.745Z,99221.75
2023-02-20T07:23:27.629Z,99203.75
2023-02-20T07:25:54.649Z,99206.31
2023-02-20T07:28:21.721Z,99187.50
2023-02-20T07:30:51.790Z,99183.19
2023-02-20T07:33:19.471Z,99188.34
2023-02-20T07:35:46.434Z,99164.38
2023-02-20T07:38:14.956Z,99150.69
2023-02-20T07:40:41.982Z,99144.69
2023-02-20T07:43:09.017Z,99135.28
2023-02-20T07:45:39.488Z,99140.41
2023-02-20T07:48:06.525Z,99133.56
2023-02-20T07:50:34.476Z,99131.84
2023-02-20T07:53:01.446Z,99124.13
2023-02-20T07:55:28.503Z,99113.81
2023-02-20T07:57:58.546Z,99095.84
2023-02-20T08:00:27.012Z,99085.56
2023-02-20T08:02:54.327Z,99072.75
2023-02-20T08:05:21.532Z,99062.47
2023-02-20T08:07:49.969Z,99046.16
2023-02-20T08:10:19.427Z,99048.75
2023-02-20T08:12:47.471Z,99035.06
2023-02-20T08:15:14.721Z,99032.47
2023-02-20T08:17:46.968Z,99028.22
2023-02-20T08:20:16.201Z,99023.03
2023-02-20T08:22:44.534Z,99029.88
2023-02-20T08:25:11.933Z,99012.78
2023-02-20T08:27:43.047Z,98998.22
2023-02-20T08:30:14.088Z,98973.41
2023-02-20T08:32:41.174Z,98983.72
2023-02-20T08:35:08.308Z,98967.50
2023-02-20T08:37:35.252Z,98941.00
2023-02-20T08:40:06.841Z,98925.59
2023-02-20T08:42:34.275Z,98925.63
2023-02-20T08:45:03.374Z,98904.25
2023-02-20T08:47:30.307Z,98894.03
2023-02-20T08:49:57.404Z,98874.34
2023-02-20T08:52:24.395Z,98846.13
2023-02-20T08:54:51.392Z,98804.16
2023-02-20T08:57:19.098Z,98799.03
2023-02-20T08:59:46.336Z,98832.47
2023-02-20T09:02:22.224Z,98817.91
2023-02-20T09:04:49.316Z,98817.94
2023-02-20T09:07:16.457Z,98806.81
2023-02-20T09:09:43.439Z,98796.56
2023-02-20T09:12:10.576Z,98787.97
2023-02-20T09:14:38.096Z,98771.72
2023-02-20T09:17:05.847Z,98763.16
2023-02-20T09:19:33.210Z,98761.47
2023-02-20T09:22:00.497Z,98752.03
2023-02-20T09:24:32.289Z,98732.31
2023-02-20T09:26:59.242Z,98722.88
2023-02-20T09:29:26.177Z,98715.16
2023-02-20T09:31:53.350Z,98703.16
2023-02-20T09:34:21.468Z,98685.13
2023-02-20T09:36:48.619Z,98690.28
2023-02-20T09:39:18.036Z,98683.38
2023-02-20T09:42:09.498Z,98688.53
2023-02-20T09:45:13.459Z,98712.53
2023-02-20T09:48:16.165Z,98697.06
2023-02-20T09:50:57.356Z,98682.47
2023-02-20T09:53:46.613Z,98671.28
2023-02-20T09:56:21.458Z,98676.41
2023-02-20T09:59:13.361Z,98662.63
2023-02-20T10:01:46.736Z,98660.91
2023-02-20T10:04:16.190Z,98641.16
2023-02-20T10:06:44.717Z,98638.53
2023-02-20T10:09:14.106Z,98634.19
2023-02-20T10:12:12.181Z,98663.31
2023-02-20T10:14:56.501Z,98637.50
2023-02-20T10:17:42.697Z,98631.44
2023-02-20T10:20:36.879Z,98627.91
2023-02-20T10:23:33.860Z,98590.09
2023-02-20T10:26:04.663Z,98577.97
2023-02-20T10:28:32.251Z,98562.41
2023-02-20T10:31:08.066Z,98558.13
2023-02-20T10:33:44.287Z,98545.13
2023-02-20T10:36:37.453Z,98555.28
2023-02-20T10:39:11.425Z,98548.28
2023-02-20T10:41:51.282Z,98530.97
2023-02-20T10:44:37.619Z,98530.91
2023-02-20T10:47:43.052Z,98526.50
2023-02-20T10:50:15.767Z,98504.88
2023-02-20T10:52:52.668Z,98510.00
2023-02-20T10:55:59.919Z,98509.84
2023-02-20T10:58:53.023Z,98500.25
2023-02-20T11:01:23.283Z,98464.06
2023-02-20T11:04:15.672Z,98472.44
2023-02-20T11:06:47.066Z,98452.63
2023-02-20T11:09:14.225Z,98477.53
2023-02-20T11:11:45.280Z,98452.38
2023-02-20T11:14:27.875Z,98429.81
2023-02-20T11:17:08.295Z,98446.88
2023-02-20T11:19:47.138Z,98482.94
2023-02-20T11:22:15.879Z,98463.06
2023-02-20T11:24:44.804Z,98452.63
2023-02-20T11:27:23.016Z,98440.56
2023-02-20T11:29:55.407Z,98446.50
2023-02-20T11:32:26.611Z,98430.91
2023-02-20T11:35:05.386Z,98430.59
2023-02-20T11:37:37.863Z,98422.94
2023-02-20T11:40:28.358Z,98410.56
2023-02-20T11:42:55.660Z,98446.84
2023-02-20T11:45:27.870Z,98426.16
2023-02-20T11:48:11.444Z,98410.63
2023-02-20T11:50:44.541Z,98409.69
2023-02-20T11:53:23.525Z,98413.03
2023-02-20T11:56:14.501Z,98415.63
2023-02-20T11:58:42.782Z,98404.44
2023-02-20T12:01:31.317Z,98380.06
2023-02-20T12:03:59.720Z,98382.59
2023-02-20T12:06:43.068Z,98376.59
2023-02-20T12:09:17.695Z,98375.69
2023-02-20T12:11:45.325Z,98352.50
2023-02-20T12:14:14.164Z,98367.72
2023-02-20T12:17:04.113Z,98349.69
2023-02-20T12:19:55.254Z,98363.28
2023-02-20T12:22:37.175Z,98369.31
2023-02-20T12:25:36.893Z,98368.47
2023-02-20T12:28:22.595Z,98357.13
2023-02-20T12:31:02.249Z,98356.28
2023-02-20T12:33:48.277Z,98355.28
2023-02-20T12:36:28.897Z,98317.19
2023-02-20T12:39:00.215Z,98317.06
2023-02-20T12:41:32.679Z,98302.31
2023-02-20T12:44:35.758Z,98313.41
2023-02-20T12:47:27.336Z,98293.63
2023-02-20T12:50:24.585Z,98289.91
2023-02-20T12:53:18.438Z,98300.25
2023-02-20T12:56:21.516Z,98309.59
2023-02-20T12:59:00.722Z,98277.59
2023-02-20T13:01:39.103Z,98283.72
2023-02-20T13:04:27.845Z,98305.34
2023-02-20T13:07:08.177Z,98312.41
2023-02-20T13:09:44.937Z,98332.13
2023-02-20T13:12:16.789Z,98302.84
2023-02-20T13:15:03.629Z,98348.22
2023-02-20T13:17:58.918Z,98317.13
2023-02-20T13:20:28.735Z,98301.75
2023-02-20T13:23:04.615Z,98286.31
2023-02-20T13:25:42.598Z,98280.13
2023-02-20T13:28:45.793Z,98282.59
2023-02-20T13:31:19.946Z,98280.22
2023-02-20T13:33:50.336Z,98281.13
2023-02-20T13:36:38.896Z,98273.91
2023-02-20T13:39:36.657Z,98287.88
2023-02-20T13:42:24.996Z,98273.81
2023-02-20T13:44:52.719Z,98284.25
2023-02-20T13:47:34.759Z,98289.41
2023-02-20T13:50:02.295Z,98292.69
2023-02-20T13:52:56.237Z,98310.03
2023-02-20T13:55:26.180Z,98299.44
2023-02-20T13:58:06.086Z,98285.78
2023-02-20T14:00:54.484Z,98309.13
2023-02-20T14:03:29.247Z,98315.13
2023-02-20T14:06:17.019Z,98305.59
2023-02-20T14:08:45.923Z,98298.72
2023-02-20T14:11:33.855Z,98306.50
2023-02-20T14:14:06.497Z,98299.47
2023-02-20T14:16:36.376Z,98277.09
2023-02-20T14:19:08.057Z,98286.44
2023-02-20T14:21:35.896Z,98279.47
2023-02-20T14:24:24.539Z,98248.53
2023-02-20T14:26:56.497Z,98272.69
2023-02-20T14:29:31.881Z,98271.66
2023-02-20T14:32:01.089Z,98250.13
2023-02-20T14:34:44.478Z,98299.28
2023-02-20T14:37:30.741Z,98271.69
2023-02-20T14:40:18.437Z,98261.31
2023-02-20T14:42:46.541Z,98249.19
2023-02-20T14:45:25.321Z,98256.97
2023-02-20T14:47:56.716Z,98239.69
2023-02-20T14:50:30.602Z,98237.16
2023-02-20T14:53:21.557Z,98239.75
2023-02-20T14:55:50.287Z,98236.81
2023-02-20T14:58:21.260Z,98236.06
2023-02-20T15:00:49.158Z,98224.69
2023-02-20T15:03:30.794Z,98231.63
2023-02-20T15:06:01.883Z,98224.34
2023-02-20T15:08:33.384Z,98221.06
2023-02-20T15:11:08.340Z,98226.38
2023-02-20T15:13:38.538Z,98220.94
2023-02-20T15:16:08.584Z,98197.75
2023-02-20T15:18:38.916Z,98179.28
2023-02-20T15:21:06.563Z,98234.53
2023-02-20T15:23:36.733Z,98221.81
2023-02-20T15:26:33.876Z,98222.38
2023-02-20T15:29:11.827Z,98253.63
2023-02-20T15:31:38.951Z,98234.78
2023-02-20T15:34:14.320Z,98212.94
2023-02-20T15:36:41.932Z,98239.00
2023-02-20T15:39:11.439Z,98227.16
2023-02-20T15:41:38.861Z,98220.91
2023-02-20T15:44:05.840Z,98228.72
2023-02-20T15:46:32.883Z,98221.88
2023-02-20T15:49:01.797Z,98233.47
2023-02-20T15:51:30.585Z,98234.09
2023-02-20T15:53:58.161Z,98238.59
2023-02-20T15:56:28.419Z,98242.09
2023-02-20T15:58:55.446Z,98239.38
2023-02-20T16:01:22.453Z,98246.56
2023-02-20T16:03:52.822Z,98248.34
2023-02-20T16:06:22.390Z,98233.84
2023-02-20T16:08:50.719Z,98233.78
2023-02-20T16:11:19.239Z,98230.22
2023-02-20T16:13:47.492Z,98242.22
2023-02-20T16:16:25.218Z,98249.25
2023-02-20T16:18:55.240Z,98270.91
2023-02-20T16:21:23.874Z,98284.69
2023-02-20T16:23:51.231Z,98260.25
2023-02-20T16:26:19.424Z,98261.53
2023-02-20T16:28:55.380Z,98260.00
2023-02-20T16:31:22.508Z,98294.44
2023-02-20T16:33:49.606Z,98279.69
2023-02-20T16:36:24.386Z,98268.28
2023-02-20T16:38:52.007Z,98256.09
2023-02-20T16:41:18.947Z,98263.94
2023-02-20T16:43:45.896Z,98252.56
2023-02-20T16:46:13.627Z,98268.78
2023-02-20T16:48:43.446Z,98274.94
2023-02-20T16:51:11.646Z,98291.41
2023-02-20T16:53:38.532Z,98306.22
2023-02-20T16:56:05.725Z,98269.06
2023-02-20T16:58:32.752Z,98287.06
2023-02-20T17:00:59.693Z,98306.94
2023-02-20T17:03:27.993Z,98313.28
2023-02-20T17:05:59.923Z,98279.56
2023-02-20T17:08:27.664Z,98308.19
2023-02-20T17:10:54.879Z,98316.88
2023-02-20T17:13:21.973Z,98342.25
2023-02-20T17:15:49.052Z,98308.53
2023-02-20T17:18:16.042Z,98333.38
2023-02-20T17:20:43.125Z,98307.41
2023-02-20T17:23:10.298Z,98323.34
2023-02-20T17:25:37.296Z,98334.50
2023-02-20T17:28:05.564Z,98340.66
2023-02-20T17:30:32.776Z,98350.16
2023-02-20T17:33:00.012Z,98353.72
2023-02-20T17:35:26.913Z,98325.94
2023-02-20T17:37:53.995Z,98350.00
2023-02-20T17:40:31.249Z,98338.19
2023-02-20T17:43:00.494Z,98368.25
2023-02-20T17:45:27.553Z,98351.19
2023-02-20T17:47:54.702Z,98336.31
2023-02-20T17:50:21.849Z,98349.16
2023-02-20T17:52:55.261Z,98345.69
2023-02-20T17:55:25.166Z,98363.91
2023-02-20T17:57:56.688Z,98368.53
2023-02-20T18:00:24.475Z,98352.84
2023-02-20T18:02:51.347Z,98345.25
2023-02-20T18:05:22.506Z,98364.50
2023-02-20T18:07:50.084Z,98359.09
2023-02-20T18:10:19.314Z,98336.59
2023-02-20T18:13:02.784Z,98337.25
2023-02-20T18:15:34.961Z,98323.78
2023-02-20T18:18:02.574Z,98378.03
2023-02-20T18:20:34.005Z,98324.78
2023-02-20T18:23:02.651Z,98326.91
2023-02-20T18:25:40.109Z,98333.78
2023-02-20T18:28:09.591Z,98326.03
2023-02-20T18:30:36.580Z,98334.97
2023-02-20T18:33:03.716Z,98338.22
2023-02-20T18:35:30.773Z,98350.56
2023-02-20T18:37:58.867Z,98333.09
2023-02-20T18:40:25.846Z,98328.00
2023-02-20T18:42:53.320Z,98340.06
2023-02-20T18:45:22.407Z,98335.81
2023-02-20T18:47:51.523Z,98340.16
2023-02-20T18:50:18.899Z,98322.56
2023-02-20T18:52:48.023Z,98350.31
2023-02-20T18:55:17.770Z,98333.94
2023-02-20T18:57:47.092Z,98315.44
2023-02-20T19:00:17.975Z,98344.19
2023-02-20T19:02:45.570Z,98365.00
2023-02-20T19:05:13.699Z,98346.97
2023-02-20T19:07:42.419Z,98347.72
2023-02-20T19:10:11.875Z,98352.75
2023-02-20T19:12:39.316Z,98368.50
2023-02-20T19:15:07.614Z,98366.13
2023-02-20T19:17:35.229Z,98291.81
2023-02-20T19:20:03.941Z,98357.47
2023-02-20T19:22:31.024Z,98354.75
2023-02-20T19:24:58.180Z,98346.34
2023-02-20T19:27:25.874Z,98322.06
2023-02-20T19:29:53.226Z,98350.69
2023-02-20T19:32:20.429Z,98337.06
2023-02-20T19:34:48.231Z,98355.03
2023-02-20T19:37:16.670Z,98339.41
2023-02-20T19:39:43.673Z,98338.63
2023-02-20T19:42:10.604Z,98352.66
2023-02-20T19:44:38.508Z,98382.78
2023-02-20T19:47:05.954Z,98375.00
2023-02-20T19:49:33.787Z,98368.75
2023-02-20T19:52:00.875Z,98383.44
2023-02-20T19:54:30.127Z,98392.84
2023-02-20T19:56:59.586Z,98398.06
2023-02-20T19:59:28.245Z,98386.16
2023-02-20T20:01:57.788Z,98405.69
2023-02-20T20:04:26.928Z,98422.22
2023-02-20T20:06:54.507Z,98403.06
2023-02-20T20:09:35.286Z,98408.53
2023-02-20T20:12:04.185Z,98399.06
2023-02-20T20:14:31.259Z,98413.38
2023-02-20T20:16:58.197Z,98410.25
2023-02-20T20:19:25.470Z,98416.38
2023-02-20T20:21:52.427Z,98411.09
2023-02-20T20:24:19.380Z,98386.31
2023-02-20T20:26:46.389Z,98352.50
2023-02-20T20:29:13.382Z,98368.00
2023-02-20T20:31:41.764Z,98359.56
2023-02-20T20:34:09.180Z,98364.00
2023-02-20T20:36:36.357Z,98403.75
2023-02-20T20:39:04.336Z,98403.53
2023-02-20T20:41:44.046Z,98376.75
2023-02-20T20:44:12.184Z,98385.34
2023-02-20T20:46:39.431Z,98393.13
2023-02-20T20:49:06.439Z,98351.66
2023-02-20T20:51:37.721Z,98393.16
2023-02-20T20:54:07.373Z,98404.16
2023-02-20T20:56:35.164Z,98387.09
2023-02-20T20:59:07.511Z,98379.28
2023-02-20T21:01:37.178Z,98401.03
2023-02-20T21:04:04.996Z,98404.41
2023-02-20T21:06:35.457Z,98392.28
2023-02-20T21:09:06.618Z,98391.53
2023-02-20T21:11:35.422Z,98401.03
2023-02-20T21:14:03.894Z,98400.22
2023-02-20T21:19:41.467Z,98331.84
2023-02-20T21:22:08.594Z,98388.03
2023-02-20T21:24:36.839Z,98375.16
2023-02-20T21:27:04.774Z,98385.22
2023-02-20T21:29:32.298Z,98397.47
2023-02-20T21:31:59.273Z,98400.00
2023-02-20T21:34:27.387Z,98411.34
2023-02-20T21:36:54.556Z,98405.31
2023-02-20T21:39:23.112Z,98393.16
2023-02-20T21:42:10.967Z,98392.28
2023-02-20T21:44:39.651Z,98401.03
2023-02-20T21:47:09.892Z,98390.69
2023-02-20T21:49:41.850Z,98387.44
2023-02-20T21:52:08.808Z,98384.63
2023-02-20T21:54:36.064Z,98383.81
2023-02-20T21:57:03.016Z,98399.28
2023-02-20T21:59:29.878Z,98326.66
2023-02-20T22:01:57.207Z,98400.88
2023-02-20T22:04:25.175Z,98376.69
2023-02-20T22:07:12.110Z,98406.91
2023-02-20T22:09:58.910Z,98373.16
2023-02-20T22:12:46.066Z,98393.13
2023-02-20T22:15:42.151Z,98400.06
2023-02-20T22:18:29.126Z,98379.31
2023-02-20T22:21:16.360Z,98406.16
2023-02-20T22:24:03.277Z,98422.53
2023-02-20T22:26:50.106Z,98414.88
2023-02-20T22:29:36.943Z,98407.06
2023-02-20T22:32:24.071Z,98390.81
2023-02-20T22:35:12.382Z,98384.78
2023-02-20T22:37:59.566Z,98386.72
2023-02-20T22:40:46.351Z,98369.25
2023-02-20T22:43:33.645Z,98373.53
2023-02-20T22:46:20.523Z,98385.78
2023-02-20T22:49:07.339Z,98393.59
2023-02-20T22:51:54.165Z,98406.63
2023-02-20T22:54:43.583Z,98394.47
2023-02-20T22:57:31.528Z,98397.16
2023-02-20T23:00:18.390Z,98382.53
2023-02-20T23:03:05.235Z,98379.88
2023-02-20T23:05:52.085Z,98374.81
2023-02-20T23:08:38.938Z,98381.63
2023-02-20T23:11:26.195Z,98355.00
2023-02-20T23:14:13.030Z,98377.25
2023-02-20T23:16:59.811Z,98384.25
2023-02-20T23:19:46.709Z,98374.56
2023-02-20T23:22:33.468Z,98373.78
2023-02-20T23:25:20.376Z,98356.56
2023-02-20T23:28:09.647Z,98394.34
2023-02-20T23:30:56.543Z,98380.66
2023-02-20T23:33:43.302Z,98402.25
2023-02-20T23:36:30.258Z,98372.97
2023-02-20T23:39:17.190Z,98386.72
2023-02-20T23:42:05.094Z,98384.06
2023-02-20T23:44:51.873Z,98380.50
2023-02-20T23:47:38.720Z,98405.69
2023-02-20T23:50:25.834Z,98394.47
2023-02-20T23:53:12.806Z,98353.13
2023-02-20T23:55:59.665Z,98400.56
2023-02-20T23:58:46.525Z,98396.31
